Time;durP1;ratioP1;P1;durP2;ratioP2;P2;SDS_P1;SDS_P2;PMS_P1;PMS_P2;Temp;Humidity;BMP_temperature;BMP_pressure;BME280_temperature;BME280_humidity;BME280_pressure;Samples;Min_cycle;Max_cycle;Signal;HPM_P1;HPM_P2
2021/08/21 00:02:20;;;;;;;;;;;;;;;;;;5084479;28;19936;-89
2021/08/21 00:04:52;;;;;;;;;;;;;;;;;;5078451;28;19935;-89
2021/08/21 00:07:22;;;;;;;;;;;;;;;;;;5083925;28;19924;-90
2021/08/21 00:09:51;;;;;;;;;;;;;;;;;;5075315;28;19924;-88
2021/08/21 00:12:20;;;;;;;;;;;;;;;;;;5084262;28;19954;-88
2021/08/21 00:14:49;;;;;;;;;;;;;;;;;;5078917;28;19932;-89
2021/08/21 00:17:18;;;;;;;;;;;;;;;;;;5076661;28;19946;-89
2021/08/21 00:19:56;;;;;;;;;;;;;;;;;;5096589;28;19924;-91
2021/08/21 00:22:34;;;;;;;;;;;;;;;;;;5082676;28;19924;-89
2021/08/21 00:25:07;;;;;;;;;;;;;;;;;;5077744;28;20005;-89
2021/08/21 00:27:36;;;;;;;;;;;;;;;;;;5089100;28;19951;-89
2021/08/21 00:30:05;;;;;;;;;;;;;;;;;;5099438;28;20411;-88
2021/08/21 00:32:34;;;;;;;;;;;;;;;;;;5082349;28;19932;-89
2021/08/21 00:35:02;;;;;;;;;;;;;;;;;;5081910;28;19938;-89
2021/08/21 00:37:32;;;;;;;;;;;;;;;;;;5083195;28;19931;-88
2021/08/21 00:40:01;;;;;;;;;;;;;;;;;;5085588;28;19935;-88
2021/08/21 00:42:30;;;;;;;;;;;;;;;;;;5076919;28;19923;-90
2021/08/21 00:45:01;;;;;;;;;;;;;;;;;;5081945;28;20223;-89
2021/08/21 00:47:30;;;;;;;;;;;;;;;;;;5088241;28;19923;-88
2021/08/21 00:49:58;;;;;;;;;;;;;;;;;;5097189;28;20002;-89
2021/08/21 00:52:29;;;;;;;;;;;;;;;;;;5094718;27;19932;-88
2021/08/21 00:54:59;;;;;;;;;;;;;;;;;;5098510;27;19938;-90
2021/08/21 00:57:28;;;;;;;;;;;;;;;;;;5091969;28;20345;-90
2021/08/21 01:00:00;;;;;;;;;;;;;;;;;;5086377;28;19924;-90
2021/08/21 01:02:38;;;;;;;;;;;;;;;;;;5089397;28;19927;-90
2021/08/21 01:05:14;;;;;;;;;;;;;;;;;;5085348;28;19947;-90
2021/08/21 01:07:44;;;;;;;;;;;;;;;;;;5086322;28;19928;-90
2021/08/21 01:10:19;;;;;;;;;;;;;;;;;;5083625;28;20401;-90
2021/08/21 01:12:54;;;;;;;;;;;;;;;;;;5078952;28;19947;-89
2021/08/21 01:15:24;;;;;;;;;;;;;;;;;;5088044;28;19931;-87
2021/08/21 01:18:04;;;;;;;;;;;;;;;;;;5085777;28;19932;-86
2021/08/21 01:20:34;;;;;;;;;;;;;;;;;;5086426;28;19923;-88
2021/08/21 01:23:06;;;;;;;;;;;;;;;;;;5086269;28;19928;-88
2021/08/21 01:25:52;;;;;;;;;;;;;;;;;;5083470;28;19947;-89
2021/08/21 01:28:25;;;;;;;;;;;;;;;;;;5079884;28;19924;-89
2021/08/21 01:31:04;;;;;;;;;;;;;;;;;;5086629;28;19931;-88
2021/08/21 01:33:44;;;;;;;;;;;;;;;;;;5084259;28;21580;-87
2021/08/21 01:36:12;;;;;;;;;;;;;;;;;;5091056;28;19924;-86
2021/08/21 01:41:48;;;;;;;;;;;;;;;;;;5096391;28;19935;-89
2021/08/21 01:44:22;;;;;;;;;;;;;;;;;;5094008;28;19924;-88
2021/08/21 01:46:50;;;;;;;;;;;;;;;;;;5085323;28;19923;-88
2021/08/21 01:49:21;;;;;;;;;;;;;;;;;;5086667;28;20548;-88
2021/08/21 01:51:56;;;;;;;;;;;;;;;;;;5085252;27;22916;-88
2021/08/21 01:54:27;;;;;;;;;;;;;;;;;;5087081;28;19928;-89
2021/08/21 01:56:57;;;;;;;;;;;;;;;;;;5114461;27;19919;-89
2021/08/21 01:59:50;;;;;;;;;;;;;;;;;;5094388;28;19928;-88
2021/08/21 02:02:26;;;;;;;;;;;;;;;;;;5097386;27;19931;-89
2021/08/21 02:05:13;;;;;;;;;;;;;;;;;;5090433;28;19923;-88
2021/08/21 02:07:42;;;;;;;;;;;;;;;;;;5090615;28;19931;-89
2021/08/21 02:10:12;;;;;;;;;;;;;;;;;;5090331;27;19924;-87
2021/08/21 02:12:41;;;;;;;;;;;;;;;;;;5100110;28;19924;-89
2021/08/21 02:15:13;;;;;;;;;;;;;;;;;;5087181;28;20357;-88
2021/08/21 02:17:48;;;;;;;;;;;;;;;;;;5090689;28;20412;-88
2021/08/21 02:20:35;;;;;;;;;;;;;;;;;;5100970;27;19935;-88
2021/08/21 02:23:07;;;;;;;;;;;;;;;;;;5090905;28;19934;-88
2021/08/21 02:25:38;;;;;;;;;;;;;;;;;;5088082;27;19924;-89
2021/08/21 02:28:17;;;;;;;;;;;;;;;;;;5104730;28;19924;-88
2021/08/21 02:30:47;;;;;;;;;;;;;;;;;;5081009;28;19942;-87
2021/08/21 02:33:16;;;;;;;;;;;;;;;;;;5088819;28;19932;-88
2021/08/21 02:35:45;;;;;;;;;;;;;;;;;;5086815;28;19928;-87
2021/08/21 02:38:13;;;;;;;;;;;;;;;;;;5086667;28;19924;-88
2021/08/21 02:40:42;;;;;;;;;;;;;;;;;;5101637;28;20006;-87
2021/08/21 02:43:12;;;;;;;;;;;;;;;;;;5105861;28;19928;-87
2021/08/21 02:45:41;;;;;;;;;;;;;;;;;;5109057;27;20362;-87
2021/08/21 02:48:11;;;;;;;;;;;;;;;;;;5086767;28;20616;-87
2021/08/21 02:50:39;;;;;;;;;;;;;;;;;;5085380;27;19924;-88
2021/08/21 02:53:07;;;;;;;;;;;;;;;;;;5106802;27;19924;-89
2021/08/21 02:55:36;;;;;;;;;;;;;;;;;;5088813;28;19939;-89
2021/08/21 02:58:05;;;;;;;;;;;;;;;;;;5085189;28;19931;-89
2021/08/21 03:00:39;;;;;;;;;;;;;;;;;;5100281;28;19935;-89
2021/08/21 03:03:11;;;;;;;;;;;;;;;;;;5076682;28;19928;-90
2021/08/21 03:05:43;;;;;;;;;;;;;;;;;;5085287;28;19923;-89
2021/08/21 03:08:12;;;;;;;;;;;;;;;;;;5090459;28;19939;-89
2021/08/21 03:10:46;;;;;;;;;;;;;;;;;;5087879;28;19931;-88
2021/08/21 03:13:15;;;;;;;;;;;;;;;;;;5103366;28;19924;-88
2021/08/21 03:15:44;;;;;;;;;;;;;;;;;;5086037;27;19930;-89
2021/08/21 03:18:14;;;;;;;;;;;;;;;;;;5093032;28;19924;-88
2021/08/21 03:20:47;;;;;;;;;;;;;;;;;;5081530;28;19931;-89
2021/08/21 03:23:16;;;;;;;;;;;;;;;;;;5073150;28;19932;-87
2021/08/21 03:25:45;;;;;;;;;;;;;;;;;;5080711;28;19928;-89
2021/08/21 03:28:14;;;;;;;;;;;;;;;;;;5085481;28;19935;-87
2021/08/21 03:30:44;;;;;;;;;;;;;;;;;;5077639;28;19923;-88
2021/08/21 03:33:21;;;;;;;;;;;;;;;;;;5069657;28;19931;-89
2021/08/21 03:35:49;;;;;;;;;;;;;;;;;;5089315;28;20305;-88
2021/08/21 03:38:24;;;;;;;;;;;;;;;;;;5085163;28;19924;-89
2021/08/21 03:41:00;;;;;;;;;;;;;;;;;;5087195;28;19927;-89
2021/08/21 03:43:33;;;;;;;;;;;;;;;;;;5088378;28;19932;-88
2021/08/21 03:46:02;;;;;;;;;;;;;;;;;;5093237;28;19923;-88
2021/08/21 03:48:32;;;;;;;;;;;;;;;;;;5080038;28;19935;-89
2021/08/21 03:51:01;;;;;;;;;;;;;;;;;;5078882;28;19928;-89
2021/08/21 03:53:30;;;;;;;;;;;;;;;;;;5085925;28;19924;-88
2021/08/21 03:56:07;;;;;;;;;;;;;;;;;;5100648;28;20301;-88
2021/08/21 03:58:41;;;;;;;;;;;;;;;;;;5081405;28;19923;-88
2021/08/21 04:01:10;;;;;;;;;;;;;;;;;;5079517;28;19924;-89
2021/08/21 04:03:40;;;;;;;;;;;;;;;;;;5084794;28;20406;-88
2021/08/21 04:06:10;;;;;;;;;;;;;;;;;;5074277;28;20385;-88
2021/08/21 04:08:43;;;;;;;;;;;;;;;;;;5101213;28;21002;-86
2021/08/21 04:11:15;;;;;;;;;;;;;;;;;;5090004;28;19927;-88
2021/08/21 04:14:16;;;;;;;;;;;;;;;;;;5100253;27;19924;-87
2021/08/21 04:16:45;;;;;;;;;;;;;;;;;;5088205;28;20393;-88
2021/08/21 04:19:18;;;;;;;;;;;;;;;;;;5085729;28;19931;-89
2021/08/21 04:21:48;;;;;;;;;;;;;;;;;;5082072;27;19932;-89
2021/08/21 04:24:45;;;;;;;;;;;;;;;;;;5090462;28;19927;-87
2021/08/21 04:27:14;;;;;;;;;;;;;;;;;;5091493;28;19931;-89
2021/08/21 04:29:43;;;;;;;;;;;;;;;;;;5081758;28;19924;-88
2021/08/21 04:32:32;;;;;;;;;;;;;;;;;;5104130;27;20303;-89
2021/08/21 04:35:02;;;;;;;;;;;;;;;;;;5091979;28;19924;-89
2021/08/21 04:37:32;;;;;;;;;;;;;;;;;;5086318;28;19924;-88
2021/08/21 04:40:02;;;;;;;;;;;;;;;;;;5099244;28;19923;-90
2021/08/21 04:42:33;;;;;;;;;;;;;;;;;;5096885;27;19925;-90
2021/08/21 04:45:02;;;;;;;;;;;;;;;;;;5113517;28;19923;-90
2021/08/21 04:47:35;;;;;;;;;;;;;;;;;;5107560;28;19930;-89
2021/08/21 04:50:07;;;;;;;;;;;;;;;;;;5097948;28;19924;-89
2021/08/21 04:52:37;;;;;;;;;;;;;;;;;;5114357;28;19908;-89
2021/08/21 04:55:07;;;;;;;;;;;;;;;;;;5113945;28;19912;-89
2021/08/21 04:57:37;;;;;;;;;;;;;;;;;;5094784;28;19934;-90
2021/08/21 05:00:07;;;;;;;;;;;;;;;;;;5095513;28;19923;-89
2021/08/21 05:02:58;;;;;;;;;;;;;;;;;;5109440;27;20318;-87
2021/08/21 05:05:31;;;;;;;;;;;;;;;;;;5095128;28;19924;-89
2021/08/21 05:08:04;;;;;;;;;;;;;;;;;;5105113;27;20385;-89
2021/08/21 05:10:43;;;;;;;;;;;;;;;;;;5100645;27;19931;-88
2021/08/21 05:13:16;;;;;;;;;;;;;;;;;;5098459;28;19924;-89
2021/08/21 05:15:47;;;;;;;;;;;;;;;;;;5093803;28;19928;-88
2021/08/21 05:18:47;;;;;;;;;;;;;;;;;;5108739;28;19947;-88
2021/08/21 05:21:29;;;;;;;;;;;;;;;;;;5092515;28;20408;-90
2021/08/21 05:23:59;;;;;;;;;;;;;;;;;;5079404;28;19924;-87
2021/08/21 05:26:28;;;;;;;;;;;;;;;;;;5099270;28;19924;-87
2021/08/21 05:28:56;;;;;;;;;;;;;;;;;;5095761;28;19931;-88
2021/08/21 05:31:25;;;;;;;;;;;;;;;;;;5096303;28;19939;-88
2021/08/21 05:33:54;;;;;;;;;;;;;;;;;;5094943;28;19924;-88
2021/08/21 05:36:26;;;;;;;;;;;;;;;;;;5098757;27;19934;-89
2021/08/21 05:38:55;;;;;;;;;;;;;;;;;;5088001;28;19928;-88
2021/08/21 05:41:24;;;;;;;;;;;;;;;;;;5095405;28;19923;-88
2021/08/21 05:43:53;;;;;;;;;;;;;;;;;;5103000;27;19923;-89
2021/08/21 05:46:22;;;;;;;;;;;;;;;;;;5092812;28;19924;-87
2021/08/21 05:48:50;;;;;;;;;;;;;;;;;;5092627;28;19935;-88
2021/08/21 05:51:19;;;;;;;;;;;;;;;;;;5092104;28;19928;-89
2021/08/21 05:53:49;;;;;;;;;;;;;;;;;;5094348;28;19928;-89
2021/08/21 05:56:18;;;;;;;;;;;;;;;;;;5086740;28;20313;-89
2021/08/21 05:58:47;;;;;;;;;;;;;;;;;;5094849;28;19931;-88
2021/08/21 06:01:16;;;;;;;;;;;;;;;;;;5089523;28;19928;-88
2021/08/21 06:03:46;;;;;;;;;;;;;;;;;;5117009;27;19931;-88
2021/08/21 06:06:18;;;;;;;;;;;;;;;;;;5106335;27;19924;-89
2021/08/21 06:08:49;;;;;;;;;;;;;;;;;;5092395;28;19923;-88
2021/08/21 06:11:19;;;;;;;;;;;;;;;;;;5090277;28;19923;-90
2021/08/21 06:13:50;;;;;;;;;;;;;;;;;;5105185;27;19924;-89
2021/08/21 06:16:24;;;;;;;;;;;;;;;;;;5089319;28;19924;-89
2021/08/21 06:18:55;;;;;;;;;;;;;;;;;;5084012;28;19928;-86
2021/08/21 06:21:25;;;;;;;;;;;;;;;;;;5093294;28;19924;-88
2021/08/21 06:23:55;;;;;;;;;;;;;;;;;;5095211;28;20129;-89
2021/08/21 06:26:24;;;;;;;;;;;;;;;;;;5090720;27;20174;-87
2021/08/21 06:28:53;;;;;;;;;;;;;;;;;;5100653;27;19936;-89
2021/08/21 06:31:24;;;;;;;;;;;;;;;;;;5124340;27;19923;-87
2021/08/21 06:33:53;;;;;;;;;;;;;;;;;;5096653;28;19942;-88
2021/08/21 06:36:23;;;;;;;;;;;;;;;;;;5103697;28;19935;-87
2021/08/21 06:38:52;;;;;;;;;;;;;;;;;;5090249;28;19942;-89
2021/08/21 06:41:23;;;;;;;;;;;;;;;;;;5091662;28;19931;-87
2021/08/21 06:43:52;;;;;;;;;;;;;;;;;;5096242;28;19924;-87
2021/08/21 06:46:41;;;;;;;;;;;;;;;;;;5084004;28;19938;-87
2021/08/21 06:49:10;;;;;;;;;;;;;;;;;;5093350;28;19923;-88
2021/08/21 06:51:39;;;;;;;;;;;;;;;;;;5093625;28;19923;-89
2021/08/21 06:54:08;;;;;;;;;;;;;;;;;;5075097;28;20396;-89
2021/08/21 06:57:03;;;;;;;;;;;;;;;;;;5108825;27;19924;-88
2021/08/21 06:59:40;;;;;;;;;;;;;;;;;;5091127;28;20293;-87
2021/08/21 07:02:09;;;;;;;;;;;;;;;;;;5082412;28;19923;-87
2021/08/21 07:04:46;;;;;;;;;;;;;;;;;;5111420;28;20309;-86
2021/08/21 07:07:17;;;;;;;;;;;;;;;;;;5099610;28;19931;-82
2021/08/21 07:09:47;;;;;;;;;;;;;;;;;;5091202;28;20148;-87
2021/08/21 07:12:18;;;;;;;;;;;;;;;;;;5112878;27;20511;-86
2021/08/21 07:14:46;;;;;;;;;;;;;;;;;;5093811;28;20408;-87
2021/08/21 07:17:15;;;;;;;;;;;;;;;;;;5083429;28;19924;-89
2021/08/21 07:19:44;;;;;;;;;;;;;;;;;;5088584;28;19931;-82
2021/08/21 07:22:15;;;;;;;;;;;;;;;;;;5111723;27;19924;-87
2021/08/21 07:24:43;;;;;;;;;;;;;;;;;;5108271;28;19931;-87
2021/08/21 07:27:11;;;;;;;;;;;;;;;;;;5088363;28;19923;-86
2021/08/21 07:29:41;;;;;;;;;;;;;;;;;;5097687;28;19935;-86
2021/08/21 07:32:09;;;;;;;;;;;;;;;;;;5092037;28;19924;-86
2021/08/21 07:34:38;;;;;;;;;;;;;;;;;;5095281;28;19923;-88
2021/08/21 07:41:00;;;;;;;;;;;;;;;;;;5113850;28;20400;-89
2021/08/21 07:46:37;;;;;;;;;;;;;;;;;;5107820;27;19911;-89
2021/08/21 07:49:05;;;;;;;;;;;;;;;;;;5106843;28;19912;-88
2021/08/21 07:51:34;;;;;;;;;;;;;;;;;;5114845;27;19931;-86
2021/08/21 07:54:02;;;;;;;;;;;;;;;;;;5103641;27;19923;-88
2021/08/21 07:56:30;;;;;;;;;;;;;;;;;;5095993;28;20389;-88
2021/08/21 07:58:59;;;;;;;;;;;;;;;;;;5116399;27;19930;-89
2021/08/21 08:01:27;;;;;;;;;;;;;;;;;;5095158;27;20274;-87
2021/08/21 08:03:57;;;;;;;;;;;;;;;;;;5107132;28;20282;-88
2021/08/21 08:06:26;;;;;;;;;;;;;;;;;;5102623;28;19924;-88
2021/08/21 08:08:55;;;;;;;;;;;;;;;;;;5095562;28;19924;-87
2021/08/21 08:11:23;;;;;;;;;;;;;;;;;;5117894;27;19950;-88
2021/08/21 08:13:51;;;;;;;;;;;;;;;;;;5096521;28;20304;-86
2021/08/21 08:16:20;;;;;;;;;;;;;;;;;;5096864;28;19923;-88
2021/08/21 08:18:48;;;;;;;;;;;;;;;;;;5102445;28;19924;-87
2021/08/21 08:21:21;;;;;;;;;;;;;;;;;;5085138;28;19924;-84
2021/08/21 08:23:49;;;;;;;;;;;;;;;;;;5093818;28;19928;-88
2021/08/21 08:26:17;;;;;;;;;;;;;;;;;;5097427;28;19924;-85
2021/08/21 08:28:45;;;;;;;;;;;;;;;;;;5104255;27;19924;-87
2021/08/21 08:31:16;;;;;;;;;;;;;;;;;;5107201;28;19930;-86
2021/08/21 08:33:44;;;;;;;;;;;;;;;;;;5093219;28;19928;-87
2021/08/21 08:36:12;;;;;;;;;;;;;;;;;;5090312;28;20301;-86
2021/08/21 08:38:42;;;;;;;;;;;;;;;;;;5097830;27;20522;-87
2021/08/21 08:41:11;;;;;;;;;;;;;;;;;;5093242;28;19932;-86
2021/08/21 08:43:41;;;;;;;;;;;;;;;;;;5106326;27;19924;-87
2021/08/21 08:46:09;;;;;;;;;;;;;;;;;;5087031;28;19923;-87
2021/08/21 08:48:38;;;;;;;;;;;;;;;;;;5103386;27;19946;-85
2021/08/21 08:51:06;;;;;;;;;;;;;;;;;;5081381;28;19924;-87
2021/08/21 08:53:35;;;;;;;;;;;;;;;;;;5100424;27;19932;-88
2021/08/21 08:56:05;;;;;;;;;;;;;;;;;;5089013;28;19924;-85
2021/08/21 08:58:33;;;;;;;;;;;;;;;;;;5107853;27;19928;-85
2021/08/21 09:01:02;;;;;;;;;;;;;;;;;;5096099;27;19924;-84
2021/08/21 09:03:32;;;;;;;;;;;;;;;;;;5080556;28;19927;-87
2021/08/21 09:06:04;;;;;;;;;;;;;;;;;;5071490;28;19935;-83
2021/08/21 09:08:38;;;;;;;;;;;;;;;;;;5076571;28;19931;-86
2021/08/21 09:11:20;;;;;;;;;;;;;;;;;;5103118;28;19930;-85
2021/08/21 09:13:48;;;;;;;;;;;;;;;;;;5085071;28;19924;-85
2021/08/21 09:16:24;;;;;;;;;;;;;;;;;;5110839;27;19931;-85
2021/08/21 09:19:03;;;;;;;;;;;;;;;;;;5108870;27;19924;-87
2021/08/21 09:22:00;;;;;;;;;;;;;;;;;;5097563;27;20092;-84
2021/08/21 09:24:28;;;;;;;;;;;;;;;;;;5074402;28;20406;-84
2021/08/21 09:26:57;;;;;;;;;;;;;;;;;;5063588;28;19936;-85
2021/08/21 09:29:27;;;;;;;;;;;;;;;;;;5065526;28;19979;-84
2021/08/21 09:32:05;;;;;;;;;;;;;;;;;;5065004;28;19924;-84
2021/08/21 09:34:34;;;;;;;;;;;;;;;;;;5055563;28;20294;-84
2021/08/21 09:37:04;;;;;;;;;;;;;;;;;;5073077;28;19982;-85
2021/08/21 09:39:33;;;;;;;;;;;;;;;;;;5063611;28;19989;-84
2021/08/21 09:42:02;;;;;;;;;;;;;;;;;;5061431;28;19991;-84
2021/08/21 09:44:31;;;;;;;;;;;;;;;;;;5089734;28;19925;-84
2021/08/21 09:47:09;;;;;;;;;;;;;;;;;;5061838;28;19932;-84
2021/08/21 09:49:37;;;;;;;;;;;;;;;;;;5066538;28;19929;-83
2021/08/21 09:52:10;;;;;;;;;;;;;;;;;;5058781;28;19925;-84
2021/08/21 09:54:39;;;;;;;;;;;;;;;;;;5065664;28;19925;-82
2021/08/21 09:57:07;;;;;;;;;;;;;;;;;;5064157;28;20422;-85
2021/08/21 09:59:36;;;;;;;;;;;;;;;;;;5057419;28;19925;-85
2021/08/21 10:02:05;;;;;;;;;;;;;;;;;;5074061;28;19931;-84
2021/08/21 10:04:34;;;;;;;;;;;;;;;;;;5080191;28;20409;-84
2021/08/21 10:07:04;;;;;;;;;;;;;;;;;;5076051;28;19925;-85
2021/08/21 10:09:35;;;;;;;;;;;;;;;;;;5049946;28;19932;-84
2021/08/21 10:12:04;;;;;;;;;;;;;;;;;;5072994;28;19931;-85
2021/08/21 10:14:33;;;;;;;;;;;;;;;;;;5077650;28;19932;-85
2021/08/21 10:17:02;;;;;;;;;;;;;;;;;;5075893;28;19933;-84
2021/08/21 10:19:30;;;;;;;;;;;;;;;;;;5062137;28;19941;-85
2021/08/21 10:21:59;;;;;;;;;;;;;;;;;;5101593;28;19935;-85
2021/08/21 10:24:29;;;;;;;;;;;;;;;;;;5103496;28;20298;-83
2021/08/21 10:27:05;;;;;;;;;;;;;;;;;;5079925;28;19946;-83
2021/08/21 10:29:33;;;;;;;;;;;;;;;;;;5080203;28;19927;-84
2021/08/21 10:32:02;;;;;;;;;;;;;;;;;;5076047;28;19935;-84
2021/08/21 10:34:45;;;;;;;;;;;;;;;;;;5078689;28;19932;-83
2021/08/21 10:37:15;;;;;;;;;;;;;;;;;;5050034;28;20394;-84
2021/08/21 10:39:46;;;;;;;;;;;;;;;;;;5047558;28;19935;-85
2021/08/21 10:42:30;;;;;;;;;;;;;;;;;;5079025;28;19919;-85
2021/08/21 10:44:59;;;;;;;;;;;;;;;;;;5097853;28;19908;-84
2021/08/21 10:47:41;;;;;;;;;;;;;;;;;;5088722;27;20078;-84
2021/08/21 10:50:31;;;;;;;;;;;;;;;;;;5055807;28;19932;-84
2021/08/21 10:52:59;;;;;;;;;;;;;;;;;;5062817;28;19958;-85
2021/08/21 10:55:28;;;;;;;;;;;;;;;;;;5066660;28;19925;-85
2021/08/21 10:57:58;;;;;;;;;;;;;;;;;;5072607;28;19931;-85
2021/08/21 11:00:46;;;;;;;;;;;;;;;;;;5066819;28;19932;-85
2021/08/21 11:03:15;;;;;;;;;;;;;;;;;;5066897;28;19924;-85
2021/08/21 11:05:50;;;;;;;;;;;;;;;;;;5066419;28;19939;-86
2021/08/21 11:08:19;;;;;;;;;;;;;;;;;;5065185;28;19935;-86
2021/08/21 11:10:48;;;;;;;;;;;;;;;;;;5061386;28;19931;-86
2021/08/21 11:13:31;;;;;;;;;;;;;;;;;;5057864;28;19932;-85
2021/08/21 11:16:09;;;;;;;;;;;;;;;;;;5066002;28;19935;-86
2021/08/21 11:18:44;;;;;;;;;;;;;;;;;;5058494;28;19943;-86
2021/08/21 11:21:35;;;;;;;;;;;;;;;;;;5082928;28;19931;-87
2021/08/21 11:27:24;;;;;;;;;;;;;;;;;;5072305;28;19932;-85
2021/08/21 11:30:37;;;;;;;;;;;;;;;;;;5070780;28;19936;-87
2021/08/21 11:33:15;;;;;;;;;;;;;;;;;;5066913;28;19931;-86
2021/08/21 11:35:45;;;;;;;;;;;;;;;;;;5077340;28;19932;-85
2021/08/21 11:38:18;;;;;;;;;;;;;;;;;;5093247;28;19931;-86
2021/08/21 11:40:49;;;;;;;;;;;;;;;;;;5100681;28;19936;-86
2021/08/21 11:43:22;;;;;;;;;;;;;;;;;;5068111;28;19925;-85
2021/08/21 11:45:55;;;;;;;;;;;;;;;;;;5087674;28;19924;-87
2021/08/21 11:48:29;;;;;;;;;;;;;;;;;;5072613;28;19924;-85
2021/08/21 11:50:57;;;;;;;;;;;;;;;;;;5078478;28;19924;-85
2021/08/21 11:53:28;;;;;;;;;;;;;;;;;;5078535;28;19935;-85
2021/08/21 11:55:58;;;;;;;;;;;;;;;;;;5063823;28;19940;-87
2021/08/21 11:58:28;;;;;;;;;;;;;;;;;;5068700;28;20405;-86
2021/08/21 12:01:25;;;;;;;;;;;;;;;;;;5074186;28;19932;-85
2021/08/21 12:10:10;;;;;;;;;;;;;;;;;;5067654;28;19955;-89
2021/08/21 12:12:43;;;;;;;;;;;;;;;;;;5086435;28;20577;-87
2021/08/21 12:15:46;;;;;;;;;;;;;;;;;;5081558;28;19959;-86
2021/08/21 12:18:23;;;;;;;;;;;;;;;;;;5081407;28;19925;-85
2021/08/21 12:20:54;;;;;;;;;;;;;;;;;;5060207;28;19933;-86
2021/08/21 12:23:29;;;;;;;;;;;;;;;;;;5053638;28;19955;-87
2021/08/21 12:26:06;;;;;;;;;;;;;;;;;;5050936;28;19928;-85
2021/08/21 12:28:42;;;;;;;;;;;;;;;;;;5061297;28;20311;-86
2021/08/21 12:31:18;;;;;;;;;;;;;;;;;;5062244;28;19931;-86
2021/08/21 12:33:48;;;;;;;;;;;;;;;;;;5063213;28;19935;-85
2021/08/21 12:36:19;;;;;;;;;;;;;;;;;;5088634;28;19928;-85
2021/08/21 12:39:04;;;;;;;;;;;;;;;;;;5079807;28;19939;-83
2021/08/21 12:41:35;;;;;;;;;;;;;;;;;;5068922;28;19933;-85
2021/08/21 12:44:05;;;;;;;;;;;;;;;;;;5076684;28;19935;-85
2021/08/21 12:46:38;;;;;;;;;;;;;;;;;;5092050;28;19924;-86
2021/08/21 12:49:08;;;;;;;;;;;;;;;;;;5073115;28;19925;-89
2021/08/21 12:51:38;;;;;;;;;;;;;;;;;;5087384;28;19932;-86
2021/08/21 12:54:07;;;;;;;;;;;;;;;;;;5072142;28;19924;-87
2021/08/21 12:56:35;;;;;;;;;;;;;;;;;;5077709;28;19924;-86
2021/08/21 12:59:07;;;;;;;;;;;;;;;;;;5068401;28;19924;-90
2021/08/21 13:01:36;;;;;;;;;;;;;;;;;;5073749;28;19925;-89
2021/08/21 13:04:25;;;;;;;;;;;;;;;;;;5076865;28;20298;-87
2021/08/21 13:07:01;;;;;;;;;;;;;;;;;;5082719;28;19924;-86
2021/08/21 13:12:51;;;;;;;;;;;;;;;;;;5062073;28;19935;-88
2021/08/21 13:15:52;;;;;;;;;;;;;;;;;;5074884;28;19939;-86
2021/08/21 13:18:24;;;;;;;;;;;;;;;;;;5081735;28;20309;-86
2021/08/21 13:20:52;;;;;;;;;;;;;;;;;;5056086;28;19928;-85
2021/08/21 13:23:23;;;;;;;;;;;;;;;;;;5063146;28;19931;-86
2021/08/21 13:37:01;;;;;;;;;;;;;;;;;;5081179;28;19927;-88
2021/08/21 13:39:38;;;;;;;;;;;;;;;;;;5079609;28;19942;-90
2021/08/21 13:42:14;;;;;;;;;;;;;;;;;;5085060;28;20603;-87
2021/08/21 13:48:05;;;;;;;;;;;;;;;;;;5078383;28;19925;-88
2021/08/21 13:50:34;;;;;;;;;;;;;;;;;;5065294;23;20258;-90
2021/08/21 13:53:03;;;;;;;;;;;;;;;;;;5007601;28;19925;-90
2021/08/21 13:55:36;;;;;;;;;;;;;;;;;;4995833;28;19926;-90
2021/08/21 13:58:06;;;;;;;;;;;;;;;;;;5011926;28;19929;-88
2021/08/21 14:00:34;;;;;;;;;;;;;;;;;;5004634;28;19925;-89
2021/08/21 14:03:08;;;;;;;;;;;;;;;;;;5002450;28;19926;-88
2021/08/21 14:09:11;;;;;;;;;;;;;;;;;;5047554;28;19931;-87
2021/08/21 14:11:40;;;;;;;;;;;;;;;;;;5059052;28;19940;-90
2021/08/21 14:14:11;;;;;;;;;;;;;;;;;;5050864;28;19929;-92
2021/08/21 14:16:58;;;;;;;;;;;;;;;;;;5039348;28;20326;-89
2021/08/21 14:19:33;;;;;;;;;;;;;;;;;;5034200;28;19925;-90
2021/08/21 14:25:50;;;;;;;;;;;;;;;;;;5045300;28;19925;-90
2021/08/21 14:31:16;;;;;;;;;;;;;;;;;;5022490;28;19925;-90
2021/08/21 14:39:56;;;;;;;;;;;;;;;;;;5028970;28;20102;-84
2021/08/21 14:42:33;;;;;;;;;;;;;;;;;;5018604;28;19929;-89
2021/08/21 14:45:04;;;;;;;;;;;;;;;;;;5024443;28;20008;-88
2021/08/21 14:47:40;;;;;;;;;;;;;;;;;;5043203;28;19921;-90
2021/08/21 14:53:29;;;;;;;;;;;;;;;;;;4993817;28;19925;-87
2021/08/21 14:55:58;;;;;;;;;;;;;;;;;;5002542;28;20035;-88
2021/08/21 14:58:29;;;;;;;;;;;;;;;;;;5033390;28;20289;-86
2021/08/21 15:01:14;;;;;;;;;;;;;;;;;;5021449;28;19928;-86
2021/08/21 15:03:44;;;;;;;;;;;;;;;;;;5003610;28;19929;-85
2021/08/21 15:06:17;;;;;;;;;;;;;;;;;;5030417;28;19929;-86
2021/08/21 15:08:45;;;;;;;;;;;;;;;;;;5040830;28;19925;-86
2021/08/21 15:11:14;;;;;;;;;;;;;;;;;;5006341;28;19933;-86
2021/08/21 15:13:42;;;;;;;;;;;;;;;;;;5022193;28;19925;-86
2021/08/21 15:16:10;;;;;;;;;;;;;;;;;;5018679;28;19925;-86
2021/08/21 15:18:39;;;;;;;;;;;;;;;;;;5025267;28;20412;-88
2021/08/21 15:24:20;;;;;;;;;;;;;;;;;;4957750;28;19932;-86
2021/08/21 15:26:53;;;;;;;;;;;;;;;;;;5028403;28;20469;-85
2021/08/21 15:29:24;;;;;;;;;;;;;;;;;;5007026;28;19936;-87
2021/08/21 15:31:56;;;;;;;;;;;;;;;;;;5017756;28;19933;-87
2021/08/21 15:34:41;;;;;;;;;;;;;;;;;;5022583;28;20391;-87
2021/08/21 15:37:37;;;;;;;;;;;;;;;;;;4991971;28;19933;-86
2021/08/21 15:40:23;;;;;;;;;;;;;;;;;;4997231;28;19925;-86
2021/08/21 15:43:19;;;;;;;;;;;;;;;;;;5030312;28;19912;-87
2021/08/21 15:46:22;;;;;;;;;;;;;;;;;;5055987;28;19944;-87
2021/08/21 15:48:51;;;;;;;;;;;;;;;;;;5033810;28;19929;-86
2021/08/21 15:54:56;;;;;;;;;;;;;;;;;;4977028;28;19925;-87
2021/08/21 15:57:25;;;;;;;;;;;;;;;;;;4990664;28;19925;-87
2021/08/21 16:06:02;;;;;;;;;;;;;;;;;;5035672;28;19925;-88
2021/08/21 16:31:23;;;;;;;;;;;;;;;;;;4906242;23;19930;-90
2021/08/21 16:33:51;;;;;;;;;;;;;;;;;;4966073;28;19926;-88
2021/08/21 16:36:19;;;;;;;;;;;;;;;;;;4948908;28;19941;-88
2021/08/21 16:38:50;;;;;;;;;;;;;;;;;;4936257;29;19933;-87
2021/08/21 16:41:56;;;;;;;;;;;;;;;;;;4956359;28;19933;-87
2021/08/21 16:44:24;;;;;;;;;;;;;;;;;;4946354;28;19931;-87
2021/08/21 16:51:15;;;;;;;;;;;;;;;;;;4962771;28;19933;-90
2021/08/21 16:53:43;;;;;;;;;;;;;;;;;;4948395;28;19953;-89
2021/08/21 16:56:11;;;;;;;;;;;;;;;;;;4934539;28;19929;-89
2021/08/21 16:58:39;;;;;;;;;;;;;;;;;;4958506;28;19926;-90
2021/08/21 17:05:02;;;;;;;;;;;;;;;;;;4958045;28;20575;-91
2021/08/21 17:07:33;;;;;;;;;;;;;;;;;;4932178;28;19957;-93
2021/08/21 17:10:02;;;;;;;;;;;;;;;;;;4929380;28;20302;-92
2021/08/21 17:12:30;;;;;;;;;;;;;;;;;;4937375;28;19930;-91
2021/08/21 17:15:00;;;;;;;;;;;;;;;;;;4930037;28;20316;-90
2021/08/21 17:17:28;;;;;;;;;;;;;;;;;;4942080;28;19926;-92
2021/08/21 17:19:57;;;;;;;;;;;;;;;;;;4928589;28;19926;-92
2021/08/21 17:22:25;;;;;;;;;;;;;;;;;;4926625;28;19937;-87
2021/08/21 17:24:54;;;;;;;;;;;;;;;;;;4941482;28;20022;-87
2021/08/21 17:27:23;;;;;;;;;;;;;;;;;;4928271;28;19926;-86
2021/08/21 17:29:51;;;;;;;;;;;;;;;;;;4926124;28;19930;-89
2021/08/21 17:32:19;;;;;;;;;;;;;;;;;;4941834;28;19934;-87
2021/08/21 17:34:47;;;;;;;;;;;;;;;;;;4934212;28;19933;-86
2021/08/21 17:37:15;;;;;;;;;;;;;;;;;;4944315;28;20402;-86
2021/08/21 17:39:44;;;;;;;;;;;;;;;;;;4951230;28;19941;-88
2021/08/21 17:42:13;;;;;;;;;;;;;;;;;;4935752;28;19937;-86
2021/08/21 17:44:42;;;;;;;;;;;;;;;;;;4941845;28;19946;-87
2021/08/21 17:47:10;;;;;;;;;;;;;;;;;;4969546;28;19948;-90
2021/08/21 17:49:38;;;;;;;;;;;;;;;;;;4943775;28;19934;-89
2021/08/21 17:52:07;;;;;;;;;;;;;;;;;;4956068;28;19933;-90
2021/08/21 17:54:35;;;;;;;;;;;;;;;;;;4947213;28;19933;-88
2021/08/21 17:57:05;;;;;;;;;;;;;;;;;;4946930;28;19927;-92
2021/08/21 17:59:35;;;;;;;;;;;;;;;;;;4946461;28;19926;-91
2021/08/21 18:02:04;;;;;;;;;;;;;;;;;;4952992;28;19926;-91
2021/08/21 18:04:33;;;;;;;;;;;;;;;;;;4945250;28;19926;-91
2021/08/21 18:07:01;;;;;;;;;;;;;;;;;;4961269;28;19930;-91
2021/08/21 18:09:30;;;;;;;;;;;;;;;;;;4950047;28;19926;-89
2021/08/21 18:11:58;;;;;;;;;;;;;;;;;;4967367;28;19926;-89
2021/08/21 18:14:26;;;;;;;;;;;;;;;;;;4942289;28;19941;-89
2021/08/21 18:16:55;;;;;;;;;;;;;;;;;;4953938;28;19933;-89
2021/08/21 18:19:24;;;;;;;;;;;;;;;;;;4905512;28;20550;-89
2021/08/21 18:21:52;;;;;;;;;;;;;;;;;;4911438;28;19934;-90
2021/08/21 18:24:21;;;;;;;;;;;;;;;;;;4945328;28;20337;-90
2021/08/21 18:26:49;;;;;;;;;;;;;;;;;;4951981;28;20525;-90
2021/08/21 18:29:17;;;;;;;;;;;;;;;;;;4942717;28;20302;-90
2021/08/21 18:31:45;;;;;;;;;;;;;;;;;;4953100;28;19934;-90
2021/08/21 18:34:15;;;;;;;;;;;;;;;;;;4942756;28;19930;-89
2021/08/21 18:36:43;;;;;;;;;;;;;;;;;;4942755;28;19949;-89
2021/08/21 18:39:11;;;;;;;;;;;;;;;;;;4937851;28;19926;-89
2021/08/21 18:41:40;;;;;;;;;;;;;;;;;;4955555;28;19934;-89
2021/08/21 18:44:08;;;;;;;;;;;;;;;;;;4935400;28;19926;-90
2021/08/21 18:46:36;;;;;;;;;;;;;;;;;;4959395;28;19926;-89
2021/08/21 18:49:04;;;;;;;;;;;;;;;;;;4944400;28;19929;-89
2021/08/21 18:51:34;;;;;;;;;;;;;;;;;;4943316;28;19934;-90
2021/08/21 18:54:02;;;;;;;;;;;;;;;;;;4941997;28;19938;-90
2021/08/21 18:56:30;;;;;;;;;;;;;;;;;;4940907;28;20391;-90
2021/08/21 18:58:59;;;;;;;;;;;;;;;;;;4955248;28;19933;-92
2021/08/21 19:01:27;;;;;;;;;;;;;;;;;;4945932;28;19937;-93